sensor_id;sensor_type;location;lat;lon;timestamp;temperature;humidity
70068;DHT22;57425;51.616;6.680;2022-12-29T00:01:25;9.10;89.90
70068;DHT22;57425;51.616;6.680;2022-12-29T00:03:51;9.10;89.90
70068;DHT22;57425;51.616;6.680;2022-12-29T00:06:16;9.10;89.90
70068;DHT22;57425;51.616;6.680;2022-12-29T00:08:42;9.10;89.90
70068;DHT22;57425;51.616;6.680;2022-12-29T00:11:13;9.10;89.90
70068;DHT22;57425;51.616;6.680;2022-12-29T00:13:39;9.10;89.90
70068;DHT22;57425;51.616;6.680;2022-12-29T00:16:23;9.10;89.90
70068;DHT22;57425;51.616;6.680;2022-12-29T00:18:49;9.10;89.80
70068;DHT22;57425;51.616;6.680;2022-12-29T00:21:17;9.10;89.90
70068;DHT22;57425;51.616;6.680;2022-12-29T00:24:02;9.10;89.90
70068;DHT22;57425;51.616;6.680;2022-12-29T00:27:30;9.10;89.90
70068;DHT22;57425;51.616;6.680;2022-12-29T00:29:55;9.10;89.90
70068;DHT22;57425;51.616;6.680;2022-12-29T00:32:39;9.10;89.80
70068;DHT22;57425;51.616;6.680;2022-12-29T00:35:30;9.10;89.80
70068;DHT22;57425;51.616;6.680;2022-12-29T00:38:00;9.10;89.80
70068;DHT22;57425;51.616;6.680;2022-12-29T00:40:45;9.10;89.80
70068;DHT22;57425;51.616;6.680;2022-12-29T00:43:29;9.10;89.80
70068;DHT22;57425;51.616;6.680;2022-12-29T00:46:14;9.10;89.80
70068;DHT22;57425;51.616;6.680;2022-12-29T00:48:39;9.10;89.80
70068;DHT22;57425;51.616;6.680;2022-12-29T00:51:23;9.10;89.80
70068;DHT22;57425;51.616;6.680;2022-12-29T00:53:49;9.10;89.90
70068;DHT22;57425;51.616;6.680;2022-12-29T00:56:15;9.10;89.90
70068;DHT22;57425;51.616;6.680;2022-12-29T00:58:40;9.10;89.90
70068;DHT22;57425;51.616;6.680;2022-12-29T01:01:08;9.10;89.90
70068;DHT22;57425;51.616;6.680;2022-12-29T01:03:35;9.20;89.90
70068;DHT22;57425;51.616;6.680;2022-12-29T01:06:02;9.20;89.90
70068;DHT22;57425;51.616;6.680;2022-12-29T01:08:28;9.20;89.90
70068;DHT22;57425;51.616;6.680;2022-12-29T01:10:59;9.20;89.90
70068;DHT22;57425;51.616;6.680;2022-12-29T01:13:24;9.20;89.90
70068;DHT22;57425;51.616;6.680;2022-12-29T01:15:53;9.20;89.90
70068;DHT22;57425;51.616;6.680;2022-12-29T01:18:20;9.30;89.90
70068;DHT22;57425;51.616;6.680;2022-12-29T01:20:45;9.20;89.90
70068;DHT22;57425;51.616;6.680;2022-12-29T01:23:11;9.20;89.80
70068;DHT22;57425;51.616;6.680;2022-12-29T01:25:36;9.20;89.80
70068;DHT22;57425;51.616;6.680;2022-12-29T01:28:02;9.20;89.90
70068;DHT22;57425;51.616;6.680;2022-12-29T01:30:28;9.20;89.80
70068;DHT22;57425;51.616;6.680;2022-12-29T01:32:53;9.20;89.80
70068;DHT22;57425;51.616;6.680;2022-12-29T01:35:19;9.20;89.80
70068;DHT22;57425;51.616;6.680;2022-12-29T01:37:45;9.30;89.90
70068;DHT22;57425;51.616;6.680;2022-12-29T01:40:11;9.30;89.90
70068;DHT22;57425;51.616;6.680;2022-12-29T01:42:36;9.30;89.90
70068;DHT22;57425;51.616;6.680;2022-12-29T01:45:09;9.30;89.90
70068;DHT22;57425;51.616;6.680;2022-12-29T01:47:57;9.30;89.90
70068;DHT22;57425;51.616;6.680;2022-12-29T01:52:59;9.30;89.80
70068;DHT22;57425;51.616;6.680;2022-12-29T01:55:28;9.30;89.80
70068;DHT22;57425;51.616;6.680;2022-12-29T01:57:56;9.30;90.00
70068;DHT22;57425;51.616;6.680;2022-12-29T02:00:24;9.30;90.10
70068;DHT22;57425;51.616;6.680;2022-12-29T02:02:52;9.30;89.90
70068;DHT22;57425;51.616;6.680;2022-12-29T02:05:33;9.40;89.90
70068;DHT22;57425;51.616;6.680;2022-12-29T02:08:02;9.30;89.90
70068;DHT22;57425;51.616;6.680;2022-12-29T02:10:29;9.30;89.90
70068;DHT22;57425;51.616;6.680;2022-12-29T02:12:56;9.40;89.90
70068;DHT22;57425;51.616;6.680;2022-12-29T02:18:34;9.30;89.90
70068;DHT22;57425;51.616;6.680;2022-12-29T02:29:45;9.40;89.80
70068;DHT22;57425;51.616;6.680;2022-12-29T02:35:09;9.40;89.80
70068;DHT22;57425;51.616;6.680;2022-12-29T02:43:35;9.50;89.90
70068;DHT22;57425;51.616;6.680;2022-12-29T02:45:52;9.40;89.90
70068;DHT22;57425;51.616;6.680;2022-12-29T02:51:07;9.40;89.80
70068;DHT22;57425;51.616;6.680;2022-12-29T02:53:36;9.40;89.90
70068;DHT22;57425;51.616;6.680;2022-12-29T02:56:21;9.40;89.90
70068;DHT22;57425;51.616;6.680;2022-12-29T02:58:46;9.40;89.90
70068;DHT22;57425;51.616;6.680;2022-12-29T03:04:15;9.40;89.90
70068;DHT22;57425;51.616;6.680;2022-12-29T03:07:16;9.30;89.80
70068;DHT22;57425;51.616;6.680;2022-12-29T03:10:39;9.40;89.80
70068;DHT22;57425;51.616;6.680;2022-12-29T03:12:50;9.40;89.80
70068;DHT22;57425;51.616;6.680;2022-12-29T03:15:45;9.40;89.80
70068;DHT22;57425;51.616;6.680;2022-12-29T03:21:41;9.40;89.80
70068;DHT22;57425;51.616;6.680;2022-12-29T03:24:32;9.40;89.80
70068;DHT22;57425;51.616;6.680;2022-12-29T03:27:02;9.40;89.80
70068;DHT22;57425;51.616;6.680;2022-12-29T03:29:35;9.40;89.80
70068;DHT22;57425;51.616;6.680;2022-12-29T03:32:02;9.40;89.90
70068;DHT22;57425;51.616;6.680;2022-12-29T03:34:30;9.40;89.90
70068;DHT22;57425;51.616;6.680;2022-12-29T03:37:04;9.40;89.90
70068;DHT22;57425;51.616;6.680;2022-12-29T03:39:31;9.50;90.00
70068;DHT22;57425;51.616;6.680;2022-12-29T03:42:02;9.40;89.90
70068;DHT22;57425;51.616;6.680;2022-12-29T03:44:37;9.50;90.00
70068;DHT22;57425;51.616;6.680;2022-12-29T03:47:05;9.50;90.00
70068;DHT22;57425;51.616;6.680;2022-12-29T03:49:31;9.40;89.90
70068;DHT22;57425;51.616;6.680;2022-12-29T03:51:57;9.60;90.00
70068;DHT22;57425;51.616;6.680;2022-12-29T03:54:23;9.50;90.00
70068;DHT22;57425;51.616;6.680;2022-12-29T03:56:49;9.50;89.90
70068;DHT22;57425;51.616;6.680;2022-12-29T03:59:14;9.60;90.00
70068;DHT22;57425;51.616;6.680;2022-12-29T04:01:40;9.50;89.90
70068;DHT22;57425;51.616;6.680;2022-12-29T04:04:06;9.50;90.20
70068;DHT22;57425;51.616;6.680;2022-12-29T04:06:31;9.50;89.90
70068;DHT22;57425;51.616;6.680;2022-12-29T04:08:57;9.50;89.90
70068;DHT22;57425;51.616;6.680;2022-12-29T04:11:23;9.50;89.90
70068;DHT22;57425;51.616;6.680;2022-12-29T04:13:48;9.70;90.00
70068;DHT22;57425;51.616;6.680;2022-12-29T04:16:14;9.50;89.90
70068;DHT22;57425;51.616;6.680;2022-12-29T04:18:40;9.50;89.80
70068;DHT22;57425;51.616;6.680;2022-12-29T04:21:06;9.50;89.80
70068;DHT22;57425;51.616;6.680;2022-12-29T04:23:35;9.50;90.10
70068;DHT22;57425;51.616;6.680;2022-12-29T04:26:01;9.50;89.80
70068;DHT22;57425;51.616;6.680;2022-12-29T04:28:28;9.50;89.80
70068;DHT22;57425;51.616;6.680;2022-12-29T04:30:53;9.50;89.90
70068;DHT22;57425;51.616;6.680;2022-12-29T04:33:20;9.60;89.90
70068;DHT22;57425;51.616;6.680;2022-12-29T04:35:47;9.60;89.90
70068;DHT22;57425;51.616;6.680;2022-12-29T04:38:13;9.60;89.90
70068;DHT22;57425;51.616;6.680;2022-12-29T04:40:40;9.60;90.10
70068;DHT22;57425;51.616;6.680;2022-12-29T04:43:06;9.60;89.90
70068;DHT22;57425;51.616;6.680;2022-12-29T04:45:32;9.60;90.10
70068;DHT22;57425;51.616;6.680;2022-12-29T04:47:57;9.60;89.90
70068;DHT22;57425;51.616;6.680;2022-12-29T04:50:23;9.60;89.90
70068;DHT22;57425;51.616;6.680;2022-12-29T04:52:49;9.60;89.90
70068;DHT22;57425;51.616;6.680;2022-12-29T04:55:14;9.60;89.90
70068;DHT22;57425;51.616;6.680;2022-12-29T04:57:40;9.60;89.80
70068;DHT22;57425;51.616;6.680;2022-12-29T05:00:06;9.60;89.80
70068;DHT22;57425;51.616;6.680;2022-12-29T05:02:32;9.60;89.90
70068;DHT22;57425;51.616;6.680;2022-12-29T05:04:57;9.60;90.10
70068;DHT22;57425;51.616;6.680;2022-12-29T05:07:23;9.60;90.10
70068;DHT22;57425;51.616;6.680;2022-12-29T05:09:49;9.60;89.90
70068;DHT22;57425;51.616;6.680;2022-12-29T05:12:14;9.60;89.80
70068;DHT22;57425;51.616;6.680;2022-12-29T05:14:40;9.60;89.80
70068;DHT22;57425;51.616;6.680;2022-12-29T05:17:05;9.60;89.70
70068;DHT22;57425;51.616;6.680;2022-12-29T05:19:31;9.60;90.10
70068;DHT22;57425;51.616;6.680;2022-12-29T05:21:57;9.60;90.10
70068;DHT22;57425;51.616;6.680;2022-12-29T05:24:22;9.60;89.70
70068;DHT22;57425;51.616;6.680;2022-12-29T05:26:48;9.60;90.10
70068;DHT22;57425;51.616;6.680;2022-12-29T05:29:13;9.70;89.80
70068;DHT22;57425;51.616;6.680;2022-12-29T05:31:39;9.60;89.80
70068;DHT22;57425;51.616;6.680;2022-12-29T05:34:04;9.60;90.10
70068;DHT22;57425;51.616;6.680;2022-12-29T05:36:30;9.70;89.80
70068;DHT22;57425;51.616;6.680;2022-12-29T05:38:56;9.60;89.70
70068;DHT22;57425;51.616;6.680;2022-12-29T05:41:21;9.60;89.80
70068;DHT22;57425;51.616;6.680;2022-12-29T05:43:47;9.60;89.70
70068;DHT22;57425;51.616;6.680;2022-12-29T05:46:12;9.60;89.70
70068;DHT22;57425;51.616;6.680;2022-12-29T05:48:38;9.60;89.80
70068;DHT22;57425;51.616;6.680;2022-12-29T05:51:04;9.60;89.70
70068;DHT22;57425;51.616;6.680;2022-12-29T05:53:29;9.60;89.70
70068;DHT22;57425;51.616;6.680;2022-12-29T05:55:55;9.60;89.70
70068;DHT22;57425;51.616;6.680;2022-12-29T05:58:20;9.60;89.70
70068;DHT22;57425;51.616;6.680;2022-12-29T06:00:46;9.60;89.70
70068;DHT22;57425;51.616;6.680;2022-12-29T06:03:12;9.60;89.80
70068;DHT22;57425;51.616;6.680;2022-12-29T06:05:37;9.60;89.80
70068;DHT22;57425;51.616;6.680;2022-12-29T06:08:03;9.80;89.90
70068;DHT22;57425;51.616;6.680;2022-12-29T06:10:29;9.60;89.80
70068;DHT22;57425;51.616;6.680;2022-12-29T06:12:54;9.60;89.80
70068;DHT22;57425;51.616;6.680;2022-12-29T06:15:20;9.60;89.80
70068;DHT22;57425;51.616;6.680;2022-12-29T06:17:45;9.60;89.70
70068;DHT22;57425;51.616;6.680;2022-12-29T06:20:11;9.60;89.80
70068;DHT22;57425;51.616;6.680;2022-12-29T06:22:37;9.70;89.80
70068;DHT22;57425;51.616;6.680;2022-12-29T06:25:03;9.60;89.80
70068;DHT22;57425;51.616;6.680;2022-12-29T06:27:31;9.60;89.80
70068;DHT22;57425;51.616;6.680;2022-12-29T06:29:56;9.60;89.80
70068;DHT22;57425;51.616;6.680;2022-12-29T06:32:22;9.60;89.80
70068;DHT22;57425;51.616;6.680;2022-12-29T06:34:48;9.70;89.80
70068;DHT22;57425;51.616;6.680;2022-12-29T06:37:13;9.60;89.70
70068;DHT22;57425;51.616;6.680;2022-12-29T06:39:40;9.60;89.80
70068;DHT22;57425;51.616;6.680;2022-12-29T06:42:05;9.80;89.90
70068;DHT22;57425;51.616;6.680;2022-12-29T06:44:31;9.60;89.80
70068;DHT22;57425;51.616;6.680;2022-12-29T06:46:56;9.60;89.80
70068;DHT22;57425;51.616;6.680;2022-12-29T06:49:23;9.60;89.80
70068;DHT22;57425;51.616;6.680;2022-12-29T06:51:48;9.60;89.80
70068;DHT22;57425;51.616;6.680;2022-12-29T06:54:15;9.60;89.80
70068;DHT22;57425;51.616;6.680;2022-12-29T06:56:40;9.60;89.80
70068;DHT22;57425;51.616;6.680;2022-12-29T06:59:06;9.60;89.90
70068;DHT22;57425;51.616;6.680;2022-12-29T07:01:32;9.60;89.80
70068;DHT22;57425;51.616;6.680;2022-12-29T07:03:57;9.60;89.80
70068;DHT22;57425;51.616;6.680;2022-12-29T07:06:23;9.70;89.90
70068;DHT22;57425;51.616;6.680;2022-12-29T07:08:49;9.60;89.80
70068;DHT22;57425;51.616;6.680;2022-12-29T07:11:15;9.60;89.80
70068;DHT22;57425;51.616;6.680;2022-12-29T07:13:40;9.60;89.80
70068;DHT22;57425;51.616;6.680;2022-12-29T07:16:07;9.60;89.80
70068;DHT22;57425;51.616;6.680;2022-12-29T07:18:34;9.60;89.80
70068;DHT22;57425;51.616;6.680;2022-12-29T07:21:00;9.50;89.80
70068;DHT22;57425;51.616;6.680;2022-12-29T07:23:26;9.60;89.90
70068;DHT22;57425;51.616;6.680;2022-12-29T07:25:59;9.60;89.80
70068;DHT22;57425;51.616;6.680;2022-12-29T07:28:25;9.60;89.80
70068;DHT22;57425;51.616;6.680;2022-12-29T07:30:51;9.50;89.90
70068;DHT22;57425;51.616;6.680;2022-12-29T07:33:16;9.60;89.80
70068;DHT22;57425;51.616;6.680;2022-12-29T07:35:42;9.50;89.80
70068;DHT22;57425;51.616;6.680;2022-12-29T07:38:07;9.50;89.80
70068;DHT22;57425;51.616;6.680;2022-12-29T07:40:33;9.50;89.80
70068;DHT22;57425;51.616;6.680;2022-12-29T07:42:59;9.50;89.80
70068;DHT22;57425;51.616;6.680;2022-12-29T07:45:24;9.50;89.80
70068;DHT22;57425;51.616;6.680;2022-12-29T07:47:50;9.50;89.80
70068;DHT22;57425;51.616;6.680;2022-12-29T07:50:16;9.50;89.80
70068;DHT22;57425;51.616;6.680;2022-12-29T07:52:41;9.60;89.90
70068;DHT22;57425;51.616;6.680;2022-12-29T07:55:07;9.50;89.80
70068;DHT22;57425;51.616;6.680;2022-12-29T07:57:33;9.50;89.90
70068;DHT22;57425;51.616;6.680;2022-12-29T07:59:58;9.60;89.90
70068;DHT22;57425;51.616;6.680;2022-12-29T08:02:24;9.60;89.90
70068;DHT22;57425;51.616;6.680;2022-12-29T08:04:51;9.60;89.90
70068;DHT22;57425;51.616;6.680;2022-12-29T08:07:17;9.50;89.80
70068;DHT22;57425;51.616;6.680;2022-12-29T08:09:42;9.60;89.90
70068;DHT22;57425;51.616;6.680;2022-12-29T08:12:10;9.50;89.80
70068;DHT22;57425;51.616;6.680;2022-12-29T08:14:36;9.50;90.10
70068;DHT22;57425;51.616;6.680;2022-12-29T08:17:01;9.50;89.80
70068;DHT22;57425;51.616;6.680;2022-12-29T08:19:27;9.50;89.80
70068;DHT22;57425;51.616;6.680;2022-12-29T08:21:53;9.50;89.80
70068;DHT22;57425;51.616;6.680;2022-12-29T08:24:18;9.50;90.10
70068;DHT22;57425;51.616;6.680;2022-12-29T08:26:44;9.50;89.80
70068;DHT22;57425;51.616;6.680;2022-12-29T08:29:09;9.50;89.80
70068;DHT22;57425;51.616;6.680;2022-12-29T08:31:35;9.50;89.80
70068;DHT22;57425;51.616;6.680;2022-12-29T08:34:01;9.50;89.80
70068;DHT22;57425;51.616;6.680;2022-12-29T08:36:28;9.60;89.90
70068;DHT22;57425;51.616;6.680;2022-12-29T08:38:54;9.60;90.00
70068;DHT22;57425;51.616;6.680;2022-12-29T08:41:19;9.50;90.00
70068;DHT22;57425;51.616;6.680;2022-12-29T08:43:46;9.50;89.90
70068;DHT22;57425;51.616;6.680;2022-12-29T08:46:12;9.50;89.90
70068;DHT22;57425;51.616;6.680;2022-12-29T08:48:38;9.50;89.90
70068;DHT22;57425;51.616;6.680;2022-12-29T08:51:03;9.50;89.90
70068;DHT22;57425;51.616;6.680;2022-12-29T08:53:29;9.50;89.90
70068;DHT22;57425;51.616;6.680;2022-12-29T08:55:57;9.60;90.00
70068;DHT22;57425;51.616;6.680;2022-12-29T08:58:23;9.50;89.90
70068;DHT22;57425;51.616;6.680;2022-12-29T09:00:48;9.50;89.90
70068;DHT22;57425;51.616;6.680;2022-12-29T09:03:14;9.50;89.90
70068;DHT22;57425;51.616;6.680;2022-12-29T09:05:40;9.50;89.90
70068;DHT22;57425;51.616;6.680;2022-12-29T09:08:05;9.60;90.00
70068;DHT22;57425;51.616;6.680;2022-12-29T09:10:31;9.50;90.00
70068;DHT22;57425;51.616;6.680;2022-12-29T09:12:56;9.50;89.90
70068;DHT22;57425;51.616;6.680;2022-12-29T09:15:22;9.50;90.00
70068;DHT22;57425;51.616;6.680;2022-12-29T09:17:48;9.50;89.90
70068;DHT22;57425;51.616;6.680;2022-12-29T09:20:16;9.50;90.20
70068;DHT22;57425;51.616;6.680;2022-12-29T09:22:43;9.50;90.00
70068;DHT22;57425;51.616;6.680;2022-12-29T09:25:10;9.50;90.00
70068;DHT22;57425;51.616;6.680;2022-12-29T09:27:37;9.50;90.00
70068;DHT22;57425;51.616;6.680;2022-12-29T09:30:07;9.50;89.90
70068;DHT22;57425;51.616;6.680;2022-12-29T09:32:34;9.50;90.00
70068;DHT22;57425;51.616;6.680;2022-12-29T09:35:01;9.50;89.90
70068;DHT22;57425;51.616;6.680;2022-12-29T09:37:26;9.50;90.20
70068;DHT22;57425;51.616;6.680;2022-12-29T09:39:52;9.50;90.00
70068;DHT22;57425;51.616;6.680;2022-12-29T09:42:38;9.50;90.00
70068;DHT22;57425;51.616;6.680;2022-12-29T09:45:26;9.50;89.90
70068;DHT22;57425;51.616;6.680;2022-12-29T09:47:53;9.60;90.00
70068;DHT22;57425;51.616;6.680;2022-12-29T09:50:32;9.50;90.00
70068;DHT22;57425;51.616;6.680;2022-12-29T09:53:00;9.50;90.00
70068;DHT22;57425;51.616;6.680;2022-12-29T09:55:38;9.50;90.00
70068;DHT22;57425;51.616;6.680;2022-12-29T10:01:03;9.50;90.00
70068;DHT22;57425;51.616;6.680;2022-12-29T10:03:45;9.50;90.00
70068;DHT22;57425;51.616;6.680;2022-12-29T10:06:31;9.50;90.00
70068;DHT22;57425;51.616;6.680;2022-12-29T10:25:54;9.50;89.90
70068;DHT22;57425;51.616;6.680;2022-12-29T10:28:43;9.50;90.00
70068;DHT22;57425;51.616;6.680;2022-12-29T10:31:21;9.60;90.00
70068;DHT22;57425;51.616;6.680;2022-12-29T10:33:51;9.60;90.00
70068;DHT22;57425;51.616;6.680;2022-12-29T10:36:27;9.50;90.00
70068;DHT22;57425;51.616;6.680;2022-12-29T10:41:55;9.60;90.00
70068;DHT22;57425;51.616;6.680;2022-12-29T10:44:29;9.60;90.00
70068;DHT22;57425;51.616;6.680;2022-12-29T10:46:59;9.60;90.00
70068;DHT22;57425;51.616;6.680;2022-12-29T10:49:27;9.60;90.00
70068;DHT22;57425;51.616;6.680;2022-12-29T10:51:57;9.60;90.00
70068;DHT22;57425;51.616;6.680;2022-12-29T10:54:29;9.60;90.00
70068;DHT22;57425;51.616;6.680;2022-12-29T10:57:01;9.60;90.00
70068;DHT22;57425;51.616;6.680;2022-12-29T10:59:33;9.60;90.00
70068;DHT22;57425;51.616;6.680;2022-12-29T11:04:59;9.60;90.00
70068;DHT22;57425;51.616;6.680;2022-12-29T11:07:28;9.60;90.00
70068;DHT22;57425;51.616;6.680;2022-12-29T11:10:03;9.60;90.00
70068;DHT22;57425;51.616;6.680;2022-12-29T11:12:40;9.60;90.20
70068;DHT22;57425;51.616;6.680;2022-12-29T11:22:54;9.70;90.00
70068;DHT22;57425;51.616;6.680;2022-12-29T11:25:20;9.60;90.00
70068;DHT22;57425;51.616;6.680;2022-12-29T11:28:14;9.60;90.00
70068;DHT22;57425;51.616;6.680;2022-12-29T11:30:40;9.70;90.00
70068;DHT22;57425;51.616;6.680;2022-12-29T11:33:06;9.60;90.00
70068;DHT22;57425;51.616;6.680;2022-12-29T11:35:44;9.60;90.00
70068;DHT22;57425;51.616;6.680;2022-12-29T11:38:21;9.70;90.00
70068;DHT22;57425;51.616;6.680;2022-12-29T11:40:49;9.70;90.10
70068;DHT22;57425;51.616;6.680;2022-12-29T11:43:24;9.80;90.10
70068;DHT22;57425;51.616;6.680;2022-12-29T11:45:52;9.70;90.00
70068;DHT22;57425;51.616;6.680;2022-12-29T11:48:20;9.70;90.10
70068;DHT22;57425;51.616;6.680;2022-12-29T11:50:54;9.70;90.00
70068;DHT22;57425;51.616;6.680;2022-12-29T11:56:00;9.70;90.00
70068;DHT22;57425;51.616;6.680;2022-12-29T11:58:33;9.70;90.00
70068;DHT22;57425;51.616;6.680;2022-12-29T12:03:32;9.70;90.00
70068;DHT22;57425;51.616;6.680;2022-12-29T12:06:03;9.70;90.00
70068;DHT22;57425;51.616;6.680;2022-12-29T12:11:11;9.70;90.00
70068;DHT22;57425;51.616;6.680;2022-12-29T12:13:43;9.70;90.00
70068;DHT22;57425;51.616;6.680;2022-12-29T12:16:18;9.70;90.00
70068;DHT22;57425;51.616;6.680;2022-12-29T12:21:43;9.70;90.00
70068;DHT22;57425;51.616;6.680;2022-12-29T12:24:34;9.70;90.00
70068;DHT22;57425;51.616;6.680;2022-12-29T12:27:26;9.70;90.00
70068;DHT22;57425;51.616;6.680;2022-12-29T12:34:49;9.70;90.00
70068;DHT22;57425;51.616;6.680;2022-12-29T12:53:28;9.80;90.20
70068;DHT22;57425;51.616;6.680;2022-12-29T12:56:26;9.80;90.00
70068;DHT22;57425;51.616;6.680;2022-12-29T13:04:37;9.80;90.00
70068;DHT22;57425;51.616;6.680;2022-12-29T13:07:24;9.80;90.00
70068;DHT22;57425;51.616;6.680;2022-12-29T13:12:31;9.80;90.00
70068;DHT22;57425;51.616;6.680;2022-12-29T13:18:06;9.80;90.00
70068;DHT22;57425;51.616;6.680;2022-12-29T13:20:45;9.80;90.00
70068;DHT22;57425;51.616;6.680;2022-12-29T13:23:41;9.80;90.00
70068;DHT22;57425;51.616;6.680;2022-12-29T13:26:35;9.80;90.00
70068;DHT22;57425;51.616;6.680;2022-12-29T13:29:28;9.80;90.00
70068;DHT22;57425;51.616;6.680;2022-12-29T13:32:47;9.80;90.00
70068;DHT22;57425;51.616;6.680;2022-12-29T13:40:38;9.80;90.00
70068;DHT22;57425;51.616;6.680;2022-12-29T13:43:05;9.90;90.00
70068;DHT22;57425;51.616;6.680;2022-12-29T13:45:32;9.80;90.00
70068;DHT22;57425;51.616;6.680;2022-12-29T13:48:14;9.80;90.00
70068;DHT22;57425;51.616;6.680;2022-12-29T13:50:46;9.90;90.00
70068;DHT22;57425;51.616;6.680;2022-12-29T13:56:19;9.90;90.00
70068;DHT22;57425;51.616;6.680;2022-12-29T13:58:54;9.90;90.00
70068;DHT22;57425;51.616;6.680;2022-12-29T14:04:12;9.90;90.00
70068;DHT22;57425;51.616;6.680;2022-12-29T14:06:38;9.90;90.00
70068;DHT22;57425;51.616;6.680;2022-12-29T14:09:28;9.90;90.00
70068;DHT22;57425;51.616;6.680;2022-12-29T14:11:52;9.90;90.00
70068;DHT22;57425;51.616;6.680;2022-12-29T14:16:46;9.90;89.90
70068;DHT22;57425;51.616;6.680;2022-12-29T14:21:40;9.90;89.90
70068;DHT22;57425;51.616;6.680;2022-12-29T14:34:47;10.00;89.90
70068;DHT22;57425;51.616;6.680;2022-12-29T14:37:30;9.90;89.90
70068;DHT22;57425;51.616;6.680;2022-12-29T14:42:42;9.90;89.80
70068;DHT22;57425;51.616;6.680;2022-12-29T14:45:27;9.90;89.90
70068;DHT22;57425;51.616;6.680;2022-12-29T14:47:53;10.00;89.90
70068;DHT22;57425;51.616;6.680;2022-12-29T14:50:34;9.90;89.90
70068;DHT22;57425;51.616;6.680;2022-12-29T14:53:05;10.00;89.90
70068;DHT22;57425;51.616;6.680;2022-12-29T14:58:14;10.00;89.90
70068;DHT22;57425;51.616;6.680;2022-12-29T15:00:41;10.00;89.90
70068;DHT22;57425;51.616;6.680;2022-12-29T15:03:29;9.90;90.10
70068;DHT22;57425;51.616;6.680;2022-12-29T15:06:08;10.00;89.90
70068;DHT22;57425;51.616;6.680;2022-12-29T15:08:58;10.00;89.80
70068;DHT22;57425;51.616;6.680;2022-12-29T15:11:48;10.10;90.10
70068;DHT22;57425;51.616;6.680;2022-12-29T15:14:32;10.00;89.80
70068;DHT22;57425;51.616;6.680;2022-12-29T15:17:00;10.00;89.80
70068;DHT22;57425;51.616;6.680;2022-12-29T15:19:27;10.00;89.80
70068;DHT22;57425;51.616;6.680;2022-12-29T15:21:54;10.00;89.80
70068;DHT22;57425;51.616;6.680;2022-12-29T15:24:20;10.10;89.80
70068;DHT22;57425;51.616;6.680;2022-12-29T15:26:50;10.00;90.10
70068;DHT22;57425;51.616;6.680;2022-12-29T15:29:30;10.00;89.70
70068;DHT22;57425;51.616;6.680;2022-12-29T15:31:59;10.00;89.60
70068;DHT22;57425;51.616;6.680;2022-12-29T15:34:29;10.00;89.70
70068;DHT22;57425;51.616;6.680;2022-12-29T15:36:55;10.00;89.70
70068;DHT22;57425;51.616;6.680;2022-12-29T15:39:28;10.00;89.60
70068;DHT22;57425;51.616;6.680;2022-12-29T15:41:58;10.00;89.60
70068;DHT22;57425;51.616;6.680;2022-12-29T15:44:40;10.00;89.60
70068;DHT22;57425;51.616;6.680;2022-12-29T15:47:18;10.00;89.60
70068;DHT22;57425;51.616;6.680;2022-12-29T15:49:53;10.00;89.60
70068;DHT22;57425;51.616;6.680;2022-12-29T15:52:20;10.00;89.60
70068;DHT22;57425;51.616;6.680;2022-12-29T15:54:47;10.10;89.70
70068;DHT22;57425;51.616;6.680;2022-12-29T15:59:50;10.00;89.60
70068;DHT22;57425;51.616;6.680;2022-12-29T16:02:16;10.20;89.70
70068;DHT22;57425;51.616;6.680;2022-12-29T16:04:43;10.00;89.50
70068;DHT22;57425;51.616;6.680;2022-12-29T16:07:26;10.00;89.50
70068;DHT22;57425;51.616;6.680;2022-12-29T16:09:58;10.00;89.50
70068;DHT22;57425;51.616;6.680;2022-12-29T16:12:36;10.00;89.50
70068;DHT22;57425;51.616;6.680;2022-12-29T16:15:05;10.00;89.40
70068;DHT22;57425;51.616;6.680;2022-12-29T16:17:34;10.00;89.50
70068;DHT22;57425;51.616;6.680;2022-12-29T16:20:04;10.00;89.40
70068;DHT22;57425;51.616;6.680;2022-12-29T16:22:39;10.00;89.40
70068;DHT22;57425;51.616;6.680;2022-12-29T16:25:29;10.00;89.30
70068;DHT22;57425;51.616;6.680;2022-12-29T16:27:58;10.00;89.30
70068;DHT22;57425;51.616;6.680;2022-12-29T16:30:29;10.10;90.00
70068;DHT22;57425;51.616;6.680;2022-12-29T16:32:57;10.00;89.30
70068;DHT22;57425;51.616;6.680;2022-12-29T16:35:28;10.00;89.30
70068;DHT22;57425;51.616;6.680;2022-12-29T16:43:27;10.00;89.30
70068;DHT22;57425;51.616;6.680;2022-12-29T16:48:30;10.00;89.30
70068;DHT22;57425;51.616;6.680;2022-12-29T16:51:06;10.00;89.30
70068;DHT22;57425;51.616;6.680;2022-12-29T16:53:41;10.00;89.40
70068;DHT22;57425;51.616;6.680;2022-12-29T16:56:16;10.00;89.40
70068;DHT22;57425;51.616;6.680;2022-12-29T16:58:47;10.00;89.90
70068;DHT22;57425;51.616;6.680;2022-12-29T17:01:13;10.00;89.40
70068;DHT22;57425;51.616;6.680;2022-12-29T17:03:48;10.00;89.40
70068;DHT22;57425;51.616;6.680;2022-12-29T17:06:16;10.00;89.40
70068;DHT22;57425;51.616;6.680;2022-12-29T17:08:44;10.00;89.40
70068;DHT22;57425;51.616;6.680;2022-12-29T17:11:28;10.00;89.30
70068;DHT22;57425;51.616;6.680;2022-12-29T17:20:27;10.00;89.20
70068;DHT22;57425;51.616;6.680;2022-12-29T17:22:54;10.00;89.20
70068;DHT22;57425;51.616;6.680;2022-12-29T17:25:29;9.90;89.10
70068;DHT22;57425;51.616;6.680;2022-12-29T17:30:46;9.90;88.90
70068;DHT22;57425;51.616;6.680;2022-12-29T17:33:14;9.90;88.90
70068;DHT22;57425;51.616;6.680;2022-12-29T17:35:40;9.90;88.70
70068;DHT22;57425;51.616;6.680;2022-12-29T17:38:24;9.90;88.60
70068;DHT22;57425;51.616;6.680;2022-12-29T17:40:52;9.90;88.90
70068;DHT22;57425;51.616;6.680;2022-12-29T17:43:17;9.90;88.50
70068;DHT22;57425;51.616;6.680;2022-12-29T17:45:48;9.90;88.40
70068;DHT22;57425;51.616;6.680;2022-12-29T17:48:16;9.90;88.40
70068;DHT22;57425;51.616;6.680;2022-12-29T17:50:42;9.90;88.40
70068;DHT22;57425;51.616;6.680;2022-12-29T17:53:14;9.90;88.40
70068;DHT22;57425;51.616;6.680;2022-12-29T17:55:40;9.90;88.10
70068;DHT22;57425;51.616;6.680;2022-12-29T17:58:26;9.90;88.10
70068;DHT22;57425;51.616;6.680;2022-12-29T18:00:55;9.90;87.70
70068;DHT22;57425;51.616;6.680;2022-12-29T18:03:31;10.00;87.80
70068;DHT22;57425;51.616;6.680;2022-12-29T18:05:57;9.90;87.70
70068;DHT22;57425;51.616;6.680;2022-12-29T18:08:23;9.90;87.70
70068;DHT22;57425;51.616;6.680;2022-12-29T18:10:53;10.00;87.80
70068;DHT22;57425;51.616;6.680;2022-12-29T18:13:24;9.90;87.70
70068;DHT22;57425;51.616;6.680;2022-12-29T18:15:51;9.90;87.70
70068;DHT22;57425;51.616;6.680;2022-12-29T18:18:22;9.80;87.60
70068;DHT22;57425;51.616;6.680;2022-12-29T18:20:50;9.80;87.40
70068;DHT22;57425;51.616;6.680;2022-12-29T18:23:22;9.80;87.30
70068;DHT22;57425;51.616;6.680;2022-12-29T18:26:24;9.80;87.30
70068;DHT22;57425;51.616;6.680;2022-12-29T18:28:52;9.80;87.10
70068;DHT22;57425;51.616;6.680;2022-12-29T18:31:23;9.80;87.40
70068;DHT22;57425;51.616;6.680;2022-12-29T18:33:51;9.80;87.20
70068;DHT22;57425;51.616;6.680;2022-12-29T18:36:17;9.80;87.20
70068;DHT22;57425;51.616;6.680;2022-12-29T18:38:43;9.80;87.10
70068;DHT22;57425;51.616;6.680;2022-12-29T18:41:21;9.70;87.00
70068;DHT22;57425;51.616;6.680;2022-12-29T18:43:47;9.90;87.10
70068;DHT22;57425;51.616;6.680;2022-12-29T18:46:13;9.80;87.20